Time;durP1;ratioP1;P1;durP2;ratioP2;P2;SDS_P1;SDS_P2;PMS_P1;PMS_P2;Temp;Humidity;BMP_temperature;BMP_pressure;BME280_temperature;BME280_humidity;BME280_pressure;Samples;Min_cycle;Max_cycle;Signal;HPM_P1;HPM_P2
2022/03/06 00:01:47;;;;;;;26.02;11.63;;;;;;;;;;5062815;28;20083;-72
2022/03/06 00:04:12;;;;;;;21.95;10.68;;;;;;;;;;5065079;28;20020;-72
2022/03/06 00:06:37;;;;;;;22.40;10.75;;;;;;;;;;5064887;28;20021;-72
2022/03/06 00:09:02;;;;;;;21.60;10.93;;;;;;;;;;5065578;28;20016;-72
2022/03/06 00:11:28;;;;;;;20.15;10.90;;;;;;;;;;5062421;28;20116;-72
2022/03/06 00:13:53;;;;;;;22.92;11.45;;;;;;;;;;5062358;28;20029;-71
2022/03/06 00:16:18;;;;;;;23.85;11.93;;;;;;;;;;5066840;28;20020;-72
2022/03/06 00:18:43;;;;;;;21.52;10.48;;;;;;;;;;5067237;28;20028;-72
2022/03/06 00:21:09;;;;;;;21.48;9.95;;;;;;;;;;5066570;28;20393;-72
2022/03/06 00:23:34;;;;;;;20.92;10.82;;;;;;;;;;5064751;28;20103;-72
2022/03/06 00:26:00;;;;;;;20.98;10.55;;;;;;;;;;5066364;28;20021;-72
2022/03/06 00:28:25;;;;;;;25.27;11.73;;;;;;;;;;5066252;28;20485;-72
2022/03/06 00:30:50;;;;;;;22.60;10.55;;;;;;;;;;5065215;28;20582;-72
2022/03/06 00:33:15;;;;;;;23.75;12.63;;;;;;;;;;5062009;28;20028;-72
2022/03/06 00:35:40;;;;;;;25.48;11.20;;;;;;;;;;5064899;28;20066;-71
2022/03/06 00:38:06;;;;;;;28.38;12.30;;;;;;;;;;5065065;28;20119;-72
2022/03/06 00:40:31;;;;;;;27.15;11.27;;;;;;;;;;5064207;28;20469;-72
2022/03/06 00:42:56;;;;;;;23.70;11.45;;;;;;;;;;5062663;28;20039;-72
2022/03/06 00:45:21;;;;;;;25.05;12.35;;;;;;;;;;5066513;28;20029;-71
2022/03/06 00:47:46;;;;;;;23.98;11.48;;;;;;;;;;5064223;28;20427;-71
2022/03/06 00:50:11;;;;;;;25.98;12.32;;;;;;;;;;5064566;28;20028;-72
2022/03/06 00:52:37;;;;;;;28.38;13.10;;;;;;;;;;5063836;28;20021;-72
2022/03/06 00:55:03;;;;;;;23.98;11.73;;;;;;;;;;5063714;28;20058;-72
2022/03/06 00:57:28;;;;;;;24.95;12.60;;;;;;;;;;5065790;28;20024;-72
2022/03/06 00:59:53;;;;;;;23.70;11.85;;;;;;;;;;5064356;28;20025;-72
2022/03/06 01:02:18;;;;;;;31.00;12.98;;;;;;;;;;5063872;28;20046;-72
2022/03/06 01:04:44;;;;;;;24.35;12.23;;;;;;;;;;5062873;28;20020;-72
2022/03/06 01:07:09;;;;;;;23.23;11.88;;;;;;;;;;5064327;28;20025;-72
2022/03/06 01:09:34;;;;;;;23.30;11.90;;;;;;;;;;5065168;28;20023;-71
2022/03/06 01:11:59;;;;;;;24.85;12.13;;;;;;;;;;5062900;28;20036;-72
2022/03/06 01:14:25;;;;;;;24.17;12.57;;;;;;;;;;5046018;28;20024;-72
2022/03/06 01:16:50;;;;;;;24.67;12.63;;;;;;;;;;5064426;28;20028;-72
2022/03/06 01:19:15;;;;;;;24.23;11.52;;;;;;;;;;5064796;28;20025;-71
2022/03/06 01:21:40;;;;;;;25.38;12.15;;;;;;;;;;5060343;28;20089;-72
2022/03/06 01:24:06;;;;;;;22.98;11.88;;;;;;;;;;5063621;28;20067;-72
2022/03/06 01:26:31;;;;;;;26.70;12.48;;;;;;;;;;5065582;28;20020;-72
2022/03/06 01:28:56;;;;;;;24.17;12.35;;;;;;;;;;5063097;28;20531;-72
2022/03/06 01:31:21;;;;;;;24.67;11.55;;;;;;;;;;5063508;28;20044;-72
2022/03/06 01:33:47;;;;;;;26.50;12.48;;;;;;;;;;5064755;28;20024;-72
2022/03/06 01:36:12;;;;;;;26.13;12.63;;;;;;;;;;5065779;28;20029;-72
2022/03/06 01:38:37;;;;;;;24.63;11.68;;;;;;;;;;5064595;28;20051;-73
2022/03/06 01:41:02;;;;;;;29.33;12.90;;;;;;;;;;5065519;28;20021;-72
2022/03/06 01:43:27;;;;;;;23.20;11.15;;;;;;;;;;5061023;28;20632;-72
2022/03/06 01:45:53;;;;;;;22.10;11.40;;;;;;;;;;5061150;28;20035;-72
2022/03/06 01:48:19;;;;;;;24.63;11.48;;;;;;;;;;5064829;28;20028;-72
2022/03/06 01:50:44;;;;;;;30.20;12.15;;;;;;;;;;5059686;28;20115;-72
2022/03/06 01:53:10;;;;;;;26.60;12.93;;;;;;;;;;5061449;28;20052;-73
2022/03/06 01:55:35;;;;;;;27.80;12.82;;;;;;;;;;5064345;28;20120;-73
2022/03/06 01:58:01;;;;;;;25.98;13.10;;;;;;;;;;5062841;28;20031;-72
2022/03/06 02:00:28;;;;;;;27.45;13.23;;;;;;;;;;5063769;28;20044;-72
2022/03/06 02:02:53;;;;;;;25.65;12.73;;;;;;;;;;5047845;28;20085;-72
2022/03/06 02:05:18;;;;;;;26.08;12.88;;;;;;;;;;5064011;28;20040;-72
2022/03/06 02:07:43;;;;;;;28.15;12.27;;;;;;;;;;5065220;28;20074;-73
2022/03/06 02:10:09;;;;;;;23.83;11.18;;;;;;;;;;5064020;28;20031;-73
2022/03/06 02:12:34;;;;;;;23.08;12.18;;;;;;;;;;5064826;28;20028;-73
2022/03/06 02:15:00;;;;;;;26.35;12.13;;;;;;;;;;5065336;28;20024;-72
2022/03/06 02:17:25;;;;;;;25.88;12.60;;;;;;;;;;5061269;28;20074;-73
2022/03/06 02:20:00;;;;;;;25.05;11.82;;;;;;;;;;5061547;28;20028;-72
2022/03/06 02:22:27;;;;;;;26.33;12.25;;;;;;;;;;5062323;28;20040;-72
2022/03/06 02:24:52;;;;;;;27.88;11.93;;;;;;;;;;5060388;28;20408;-72
2022/03/06 02:27:18;;;;;;;28.42;11.88;;;;;;;;;;5064710;28;20035;-72
2022/03/06 02:29:43;;;;;;;23.92;11.40;;;;;;;;;;5063355;28;20164;-72
2022/03/06 02:32:09;;;;;;;26.23;12.73;;;;;;;;;;5063424;28;20455;-73
2022/03/06 02:34:34;;;;;;;25.83;12.75;;;;;;;;;;5062510;28;20030;-72
2022/03/06 02:36:59;;;;;;;23.55;12.02;;;;;;;;;;5063248;28;20024;-72
2022/03/06 02:39:24;;;;;;;25.50;12.25;;;;;;;;;;5065342;28;20020;-72
2022/03/06 02:41:50;;;;;;;23.80;11.52;;;;;;;;;;5063687;28;20488;-72
2022/03/06 02:44:15;;;;;;;24.27;12.23;;;;;;;;;;5061749;28;20024;-72
2022/03/06 02:46:40;;;;;;;26.63;12.50;;;;;;;;;;5061265;28;20515;-72
2022/03/06 02:49:05;;;;;;;29.67;13.57;;;;;;;;;;5064489;28;20013;-72
2022/03/06 02:51:31;;;;;;;29.63;12.82;;;;;;;;;;5058340;28;20107;-72
2022/03/06 02:53:56;;;;;;;30.25;13.25;;;;;;;;;;5063873;28;20033;-73
2022/03/06 02:56:21;;;;;;;24.85;13.05;;;;;;;;;;5061901;28;20108;-73
2022/03/06 02:58:46;;;;;;;26.52;11.85;;;;;;;;;;5064041;28;20048;-73
2022/03/06 03:01:11;;;;;;;27.52;12.38;;;;;;;;;;5061904;28;20041;-73
2022/03/06 03:03:39;;;;;;;28.80;12.63;;;;;;;;;;5062330;28;20048;-71
2022/03/06 03:06:08;;;;;;;26.23;12.20;;;;;;;;;;5061545;28;20054;-73
2022/03/06 03:08:33;;;;;;;25.50;11.68;;;;;;;;;;5061011;28;20044;-72
2022/03/06 03:10:58;;;;;;;27.35;12.13;;;;;;;;;;5062772;28;20916;-72
2022/03/06 03:13:23;;;;;;;26.27;12.73;;;;;;;;;;5064085;28;20017;-72
2022/03/06 03:15:49;;;;;;;27.70;12.57;;;;;;;;;;5064287;28;20028;-72
2022/03/06 03:18:14;;;;;;;35.58;13.45;;;;;;;;;;5066332;28;20078;-72
2022/03/06 03:20:39;;;;;;;22.23;11.50;;;;;;;;;;5068210;28;20082;-73
2022/03/06 03:23:04;;;;;;;28.65;11.85;;;;;;;;;;5066707;28;20021;-73
2022/03/06 03:25:29;;;;;;;29.80;12.65;;;;;;;;;;5066319;28;20024;-73
2022/03/06 03:27:55;;;;;;;27.33;12.13;;;;;;;;;;5067651;28;20047;-73
2022/03/06 03:30:20;;;;;;;26.77;12.60;;;;;;;;;;5065858;28;20384;-73
2022/03/06 03:32:45;;;;;;;25.60;11.77;;;;;;;;;;5067744;28;20106;-71
2022/03/06 03:35:10;;;;;;;25.50;11.25;;;;;;;;;;5066220;28;20028;-73
2022/03/06 03:37:36;;;;;;;23.73;11.73;;;;;;;;;;5066829;28;20032;-73
2022/03/06 03:40:01;;;;;;;26.38;12.05;;;;;;;;;;5068367;28;20404;-73
2022/03/06 03:42:26;;;;;;;23.92;11.85;;;;;;;;;;5065963;28;20027;-73
2022/03/06 03:44:51;;;;;;;23.75;11.70;;;;;;;;;;5065637;28;20052;-72
2022/03/06 03:47:16;;;;;;;26.25;11.45;;;;;;;;;;5065578;28;20378;-72
2022/03/06 03:49:41;;;;;;;25.15;11.85;;;;;;;;;;5064431;28;20024;-72
2022/03/06 03:52:07;;;;;;;22.38;11.20;;;;;;;;;;5065556;28;20595;-72
2022/03/06 03:54:32;;;;;;;23.40;11.23;;;;;;;;;;5067217;28;20025;-72
2022/03/06 03:56:57;;;;;;;25.92;12.38;;;;;;;;;;5065911;28;20047;-72
2022/03/06 03:59:22;;;;;;;27.13;12.13;;;;;;;;;;5066145;28;20025;-73
2022/03/06 04:01:48;;;;;;;27.23;12.23;;;;;;;;;;5063934;28;20090;-73
2022/03/06 04:04:13;;;;;;;26.42;12.73;;;;;;;;;;5066173;28;20060;-73
2022/03/06 04:06:38;;;;;;;25.23;12.15;;;;;;;;;;5067453;28;20032;-73
2022/03/06 04:09:03;;;;;;;27.95;12.77;;;;;;;;;;5066937;28;20028;-73
2022/03/06 04:11:29;;;;;;;26.23;12.20;;;;;;;;;;5065464;28;20020;-71
2022/03/06 04:13:54;;;;;;;22.98;11.88;;;;;;;;;;5065819;28;20103;-74
2022/03/06 04:16:19;;;;;;;28.65;12.23;;;;;;;;;;5065923;28;20024;-73
2022/03/06 04:18:44;;;;;;;27.20;11.75;;;;;;;;;;5065694;28;20071;-73
2022/03/06 04:21:09;;;;;;;25.23;11.90;;;;;;;;;;5065685;28;20012;-72
2022/03/06 04:23:35;;;;;;;24.00;11.88;;;;;;;;;;5068153;28;20028;-72
2022/03/06 04:26:00;;;;;;;23.98;11.63;;;;;;;;;;5065845;28;20032;-72
2022/03/06 04:28:25;;;;;;;23.35;11.98;;;;;;;;;;5065716;28;20028;-72
2022/03/06 04:30:50;;;;;;;29.00;12.18;;;;;;;;;;5060648;28;20110;-73
2022/03/06 04:33:15;;;;;;;26.63;13.07;;;;;;;;;;5066726;28;20377;-72
2022/03/06 04:35:41;;;;;;;25.38;11.50;;;;;;;;;;5065298;28;20074;-72
2022/03/06 04:38:06;;;;;;;29.90;13.50;;;;;;;;;;5068250;28;20035;-73
2022/03/06 04:40:31;;;;;;;31.90;12.60;;;;;;;;;;5066862;28;20030;-72
2022/03/06 04:42:56;;;;;;;24.38;11.35;;;;;;;;;;5067376;28;20029;-72
2022/03/06 04:45:24;;;;;;;26.02;12.52;;;;;;;;;;5065491;28;20016;-73
2022/03/06 04:47:49;;;;;;;23.23;11.70;;;;;;;;;;5064200;28;20059;-73
2022/03/06 04:50:14;;;;;;;26.73;12.68;;;;;;;;;;5066931;28;20032;-73
2022/03/06 04:52:40;;;;;;;28.20;12.80;;;;;;;;;;5063708;28;20021;-72
2022/03/06 04:55:06;;;;;;;25.42;11.77;;;;;;;;;;5064997;28;20021;-72
2022/03/06 04:57:31;;;;;;;27.73;11.48;;;;;;;;;;5064443;28;20020;-72
2022/03/06 04:59:56;;;;;;;26.65;12.90;;;;;;;;;;5064919;28;20024;-72
2022/03/06 05:02:21;;;;;;;30.05;12.25;;;;;;;;;;5061327;28;20535;-72
2022/03/06 05:04:46;;;;;;;27.25;12.38;;;;;;;;;;5065282;28;20016;-72
2022/03/06 05:07:12;;;;;;;28.73;12.55;;;;;;;;;;5063060;28;20024;-72
2022/03/06 05:09:37;;;;;;;25.77;12.52;;;;;;;;;;5061879;28;20025;-73
2022/03/06 05:12:02;;;;;;;24.13;11.15;;;;;;;;;;5062143;28;20028;-72
2022/03/06 05:14:27;;;;;;;23.92;11.35;;;;;;;;;;5061982;28;20108;-73
2022/03/06 05:16:53;;;;;;;29.73;13.18;;;;;;;;;;5064478;28;20028;-73
2022/03/06 05:19:18;;;;;;;29.00;12.80;;;;;;;;;;5063848;28;20060;-72
2022/03/06 05:21:44;;;;;;;24.85;12.25;;;;;;;;;;5062322;28;20218;-73
2022/03/06 05:24:09;;;;;;;25.52;12.73;;;;;;;;;;5065713;28;20070;-72
2022/03/06 05:26:34;;;;;;;23.48;12.30;;;;;;;;;;5064359;28;20036;-73
2022/03/06 05:29:00;;;;;;;24.85;12.20;;;;;;;;;;5063613;28;20125;-72
2022/03/06 05:31:25;;;;;;;25.88;12.20;;;;;;;;;;5063240;28;20041;-72
2022/03/06 05:33:50;;;;;;;22.67;12.23;;;;;;;;;;5061132;28;20020;-72
2022/03/06 05:36:17;;;;;;;24.65;11.82;;;;;;;;;;5062436;28;20086;-72
2022/03/06 05:38:42;;;;;;;22.67;11.13;;;;;;;;;;5063009;28;20512;-72
2022/03/06 05:41:08;;;;;;;23.88;11.88;;;;;;;;;;5063187;28;20027;-72
2022/03/06 05:43:34;;;;;;;25.60;12.70;;;;;;;;;;5064690;28;20016;-72
2022/03/06 05:46:00;;;;;;;28.10;12.88;;;;;;;;;;5064782;28;20029;-72
2022/03/06 05:48:25;;;;;;;23.00;11.80;;;;;;;;;;5063880;28;20025;-71
2022/03/06 05:50:50;;;;;;;26.95;12.48;;;;;;;;;;5065337;28;20074;-72
2022/03/06 05:53:16;;;;;;;24.90;13.02;;;;;;;;;;5059320;28;20628;-69
2022/03/06 05:55:41;;;;;;;30.77;12.52;;;;;;;;;;5060982;28;20036;-72
2022/03/06 05:58:06;;;;;;;22.02;10.60;;;;;;;;;;5063241;28;20024;-72
2022/03/06 06:00:31;;;;;;;27.75;12.90;;;;;;;;;;5063633;28;20056;-70
2022/03/06 06:02:57;;;;;;;26.58;13.02;;;;;;;;;;5063690;28;20020;-70
2022/03/06 06:05:22;;;;;;;27.00;12.02;;;;;;;;;;5063964;28;20127;-72
2022/03/06 06:07:48;;;;;;;27.50;12.57;;;;;;;;;;5063537;28;20957;-72
2022/03/06 06:10:13;;;;;;;30.02;13.25;;;;;;;;;;5063499;28;20020;-72
2022/03/06 06:12:38;;;;;;;26.73;12.65;;;;;;;;;;5061651;28;20443;-71
2022/03/06 06:15:04;;;;;;;26.42;12.77;;;;;;;;;;5063663;28;20024;-70
2022/03/06 06:17:29;;;;;;;26.50;12.77;;;;;;;;;;5063892;28;20024;-70
2022/03/06 06:19:54;;;;;;;29.02;14.07;;;;;;;;;;5062208;28;20024;-71
2022/03/06 06:22:19;;;;;;;28.60;13.45;;;;;;;;;;5062865;28;20060;-70
2022/03/06 06:24:45;;;;;;;30.35;13.98;;;;;;;;;;5059135;28;20023;-71
2022/03/06 06:27:10;;;;;;;24.20;12.32;;;;;;;;;;5064973;28;20036;-71
2022/03/06 06:29:36;;;;;;;29.98;14.60;;;;;;;;;;5063743;28;20020;-71
2022/03/06 06:32:01;;;;;;;38.03;15.23;;;;;;;;;;5060131;28;20056;-71
2022/03/06 06:34:26;;;;;;;27.58;14.45;;;;;;;;;;5063017;28;20020;-71
2022/03/06 06:36:51;;;;;;;32.65;15.45;;;;;;;;;;5058900;28;20036;-71
2022/03/06 06:39:16;;;;;;;30.58;14.93;;;;;;;;;;5064160;28;20071;-71
2022/03/06 06:41:42;;;;;;;33.28;15.32;;;;;;;;;;5062871;28;20020;-71
2022/03/06 06:44:07;;;;;;;29.45;15.38;;;;;;;;;;5062741;28;20287;-71
2022/03/06 06:46:32;;;;;;;29.98;14.38;;;;;;;;;;5063838;28;20016;-72
2022/03/06 06:48:57;;;;;;;38.05;16.15;;;;;;;;;;5059873;28;20522;-71
2022/03/06 06:51:23;;;;;;;33.17;15.65;;;;;;;;;;5067199;28;20107;-72
2022/03/06 06:53:48;;;;;;;35.13;16.17;;;;;;;;;;5063680;28;20029;-71
2022/03/06 06:56:13;;;;;;;32.35;16.23;;;;;;;;;;5065521;28;20028;-72
2022/03/06 06:58:39;;;;;;;35.17;16.67;;;;;;;;;;5063238;28;20412;-72
2022/03/06 07:01:04;;;;;;;36.83;15.95;;;;;;;;;;5062676;28;20046;-70
2022/03/06 07:03:29;;;;;;;38.22;15.93;;;;;;;;;;5060663;28;20020;-72
2022/03/06 07:05:56;;;;;;;33.97;15.68;;;;;;;;;;5064219;28;20049;-70
2022/03/06 07:08:22;;;;;;;40.35;17.15;;;;;;;;;;5067439;28;20558;-70
2022/03/06 07:10:47;;;;;;;42.45;17.65;;;;;;;;;;5069194;28;20056;-72
2022/03/06 07:13:12;;;;;;;36.20;16.42;;;;;;;;;;5066996;28;20028;-72
2022/03/06 07:15:37;;;;;;;35.63;16.27;;;;;;;;;;5065282;28;20040;-71
2022/03/06 07:18:03;;;;;;;35.42;16.50;;;;;;;;;;5067581;28;20033;-70
2022/03/06 07:20:28;;;;;;;34.95;16.98;;;;;;;;;;5066863;28;20464;-70
2022/03/06 07:22:53;;;;;;;33.30;17.13;;;;;;;;;;5064731;28;20032;-71
2022/03/06 07:25:18;;;;;;;37.05;16.85;;;;;;;;;;5064404;28;20033;-71
2022/03/06 07:27:43;;;;;;;30.75;15.20;;;;;;;;;;5066129;28;20031;-71
2022/03/06 07:30:09;;;;;;;35.78;17.27;;;;;;;;;;5065306;28;20025;-72
2022/03/06 07:32:40;;;;;;;31.33;15.85;;;;;;;;;;5080698;28;20050;-71
2022/03/06 07:35:05;;;;;;;35.67;16.23;;;;;;;;;;5065704;28;20094;-71
2022/03/06 07:37:30;;;;;;;35.75;16.48;;;;;;;;;;5067018;28;20017;-71
2022/03/06 07:39:55;;;;;;;33.83;15.63;;;;;;;;;;5066832;28;20055;-71
2022/03/06 07:42:20;;;;;;;35.55;16.70;;;;;;;;;;5066894;28;20114;-71
2022/03/06 07:44:46;;;;;;;35.08;16.25;;;;;;;;;;5063085;28;20481;-72
2022/03/06 07:47:11;;;;;;;32.75;15.68;;;;;;;;;;5066391;28;20143;-71
2022/03/06 07:49:36;;;;;;;34.15;15.80;;;;;;;;;;5065281;28;20028;-72
2022/03/06 07:52:01;;;;;;;38.00;16.55;;;;;;;;;;5049860;28;20024;-71
2022/03/06 07:54:27;;;;;;;32.30;15.75;;;;;;;;;;5065221;28;20183;-71
2022/03/06 07:56:52;;;;;;;31.95;15.68;;;;;;;;;;5067384;28;20040;-72
2022/03/06 07:59:17;;;;;;;38.30;17.60;;;;;;;;;;5065773;28;20062;-71
2022/03/06 08:01:42;;;;;;;37.97;17.83;;;;;;;;;;5065400;28;20123;-71
2022/03/06 08:04:07;;;;;;;32.78;16.55;;;;;;;;;;5066434;28;20397;-71
2022/03/06 08:06:32;;;;;;;31.38;16.55;;;;;;;;;;5065328;28;20017;-72
2022/03/06 08:08:58;;;;;;;32.53;15.48;;;;;;;;;;5064464;28;20027;-71
2022/03/06 08:11:23;;;;;;;36.80;17.70;;;;;;;;;;5065075;28;20107;-71
2022/03/06 08:13:48;;;;;;;33.38;17.67;;;;;;;;;;5064099;28;20492;-71
2022/03/06 08:16:13;;;;;;;33.45;16.13;;;;;;;;;;5064683;28;20032;-71
2022/03/06 08:18:39;;;;;;;33.70;15.73;;;;;;;;;;5063259;28;20020;-71
2022/03/06 08:21:04;;;;;;;30.88;15.65;;;;;;;;;;5064809;28;20032;-71
2022/03/06 08:23:29;;;;;;;37.92;16.73;;;;;;;;;;5063830;28;20035;-71
2022/03/06 08:25:55;;;;;;;29.38;16.23;;;;;;;;;;5062725;28;20090;-71
2022/03/06 08:28:20;;;;;;;35.03;16.17;;;;;;;;;;5063101;28;20028;-71
2022/03/06 08:30:45;;;;;;;34.70;17.75;;;;;;;;;;5063579;28;20037;-71
2022/03/06 08:33:11;;;;;;;35.63;17.17;;;;;;;;;;5064613;28;20028;-71
2022/03/06 08:35:36;;;;;;;33.35;16.80;;;;;;;;;;5063413;28;20025;-72
2022/03/06 08:38:01;;;;;;;31.00;16.90;;;;;;;;;;5060236;28;20028;-71
2022/03/06 08:40:26;;;;;;;31.30;15.93;;;;;;;;;;5064206;28;20033;-71
2022/03/06 08:42:52;;;;;;;34.83;16.65;;;;;;;;;;5064343;28;20499;-71
2022/03/06 08:45:17;;;;;;;37.13;16.20;;;;;;;;;;5064586;28;20042;-71
2022/03/06 08:47:43;;;;;;;33.33;16.60;;;;;;;;;;5062868;28;20131;-71
2022/03/06 08:50:08;;;;;;;36.95;16.98;;;;;;;;;;5053232;28;20112;-72
2022/03/06 08:52:33;;;;;;;33.08;17.40;;;;;;;;;;5064467;28;20117;-71
2022/03/06 08:54:58;;;;;;;35.35;17.63;;;;;;;;;;5063476;28;20026;-71
2022/03/06 08:57:24;;;;;;;33.03;16.08;;;;;;;;;;5063446;28;20037;-72
2022/03/06 08:59:49;;;;;;;32.45;16.55;;;;;;;;;;5063221;28;20070;-71
2022/03/06 09:02:14;;;;;;;33.30;16.48;;;;;;;;;;5060019;28;20049;-72
2022/03/06 09:04:40;;;;;;;35.15;17.17;;;;;;;;;;5059932;28;20102;-71
2022/03/06 09:07:05;;;;;;;33.95;16.70;;;;;;;;;;5063159;28;20111;-71
2022/03/06 09:09:30;;;;;;;36.67;17.05;;;;;;;;;;5063258;28;20013;-71
2022/03/06 09:11:55;;;;;;;30.98;17.20;;;;;;;;;;5056965;28;20129;-71
2022/03/06 09:14:21;;;;;;;40.17;18.27;;;;;;;;;;5064111;28;20582;-71
2022/03/06 09:16:46;;;;;;;32.05;15.75;;;;;;;;;;5064532;28;20024;-71
2022/03/06 09:19:11;;;;;;;36.42;17.80;;;;;;;;;;5065465;28;20020;-72
2022/03/06 09:21:36;;;;;;;34.00;16.80;;;;;;;;;;5063562;28;20031;-71
2022/03/06 09:24:02;;;;;;;35.13;16.63;;;;;;;;;;5060555;28;20052;-72
2022/03/06 09:26:27;;;;;;;35.72;18.23;;;;;;;;;;5063726;28;20494;-72
2022/03/06 09:28:52;;;;;;;31.52;15.98;;;;;;;;;;5063821;28;20508;-72
2022/03/06 09:31:17;;;;;;;39.13;17.60;;;;;;;;;;5062478;28;20049;-71
2022/03/06 09:33:42;;;;;;;33.70;17.90;;;;;;;;;;5063139;28;20044;-72
2022/03/06 09:36:08;;;;;;;35.92;17.40;;;;;;;;;;5062795;28;20082;-71
2022/03/06 09:38:33;;;;;;;32.45;16.80;;;;;;;;;;5063492;28;20032;-71
2022/03/06 09:41:02;;;;;;;28.73;15.48;;;;;;;;;;5060245;28;20024;-71
2022/03/06 09:43:27;;;;;;;34.33;16.65;;;;;;;;;;5063523;28;20107;-72
2022/03/06 09:45:52;;;;;;;32.80;15.75;;;;;;;;;;5062351;28;20754;-71
2022/03/06 09:48:18;;;;;;;31.60;15.60;;;;;;;;;;5060259;28;20489;-72
2022/03/06 09:50:43;;;;;;;31.02;16.55;;;;;;;;;;5063789;28;20024;-71
2022/03/06 09:53:08;;;;;;;35.95;15.80;;;;;;;;;;5058475;28;20038;-71
2022/03/06 09:55:34;;;;;;;29.70;15.35;;;;;;;;;;5062585;28;20039;-71
2022/03/06 09:57:59;;;;;;;34.17;15.73;;;;;;;;;;5062003;28;20115;-71
2022/03/06 10:00:24;;;;;;;32.10;17.13;;;;;;;;;;5058765;28;20044;-71
2022/03/06 10:02:50;;;;;;;27.10;15.40;;;;;;;;;;5063605;28;20028;-71
2022/03/06 10:05:28;;;;;;;31.80;16.17;;;;;;;;;;5044306;28;20082;-71
2022/03/06 10:07:53;;;;;;;30.92;15.60;;;;;;;;;;5062381;28;20067;-71
2022/03/06 10:10:34;;;;;;;27.92;15.43;;;;;;;;;;5064418;28;20679;-72
2022/03/06 10:12:59;;;;;;;29.02;15.60;;;;;;;;;;5062205;28;20080;-71
2022/03/06 10:15:25;;;;;;;36.72;16.75;;;;;;;;;;5059931;28;20048;-72
2022/03/06 10:17:50;;;;;;;27.73;14.85;;;;;;;;;;5064777;28;20104;-72
2022/03/06 10:20:15;;;;;;;25.83;13.90;;;;;;;;;;5060505;28;20028;-71
2022/03/06 10:22:41;;;;;;;27.92;14.13;;;;;;;;;;5061643;28;20546;-72
2022/03/06 10:25:07;;;;;;;32.90;15.20;;;;;;;;;;5060262;28;20024;-71
2022/03/06 10:27:53;;;;;;;29.15;15.80;;;;;;;;;;5065726;28;20032;-71
2022/03/06 10:30:25;;;;;;;31.60;16.38;;;;;;;;;;5066249;28;20082;-71
2022/03/06 10:32:50;;;;;;;27.98;14.93;;;;;;;;;;5068175;28;20032;-71
2022/03/06 10:35:15;;;;;;;28.48;14.38;;;;;;;;;;5062537;28;20358;-71
2022/03/06 10:37:41;;;;;;;29.45;14.80;;;;;;;;;;5066609;28;20041;-71
2022/03/06 10:40:07;;;;;;;25.55;14.27;;;;;;;;;;5067245;28;20406;-71
2022/03/06 10:42:32;;;;;;;29.52;15.25;;;;;;;;;;5066399;28;20035;-71
2022/03/06 10:44:58;;;;;;;27.10;13.80;;;;;;;;;;5067311;28;20025;-71
2022/03/06 10:47:23;;;;;;;30.58;14.95;;;;;;;;;;5067680;28;20549;-72
2022/03/06 10:50:05;;;;;;;29.42;15.93;;;;;;;;;;5066741;28;20067;-71
2022/03/06 10:52:30;;;;;;;33.22;15.15;;;;;;;;;;5062550;28;20028;-72
2022/03/06 10:54:56;;;;;;;29.00;14.80;;;;;;;;;;5062360;28;20032;-71
2022/03/06 10:57:21;;;;;;;24.80;14.07;;;;;;;;;;5069051;28;20070;-72
2022/03/06 10:59:50;;;;;;;29.55;14.63;;;;;;;;;;5062663;28;20070;-72
2022/03/06 11:02:15;;;;;;;29.15;14.55;;;;;;;;;;5062139;28;20056;-72
2022/03/06 11:04:40;;;;;;;25.02;13.48;;;;;;;;;;5061127;28;20017;-72
2022/03/06 11:07:06;;;;;;;28.88;14.10;;;;;;;;;;5062904;28;20032;-71
2022/03/06 11:09:31;;;;;;;27.63;14.45;;;;;;;;;;5063826;28;20509;-72
2022/03/06 11:11:56;;;;;;;26.35;15.32;;;;;;;;;;5067885;28;20111;-72
2022/03/06 11:14:22;;;;;;;24.55;13.65;;;;;;;;;;5062205;28;20481;-71
2022/03/06 11:16:48;;;;;;;26.70;14.82;;;;;;;;;;5065864;28;20032;-72
2022/03/06 11:19:13;;;;;;;27.30;14.63;;;;;;;;;;5062449;28;20461;-72
2022/03/06 11:21:39;;;;;;;46.22;19.50;;;;;;;;;;5063555;28;20021;-72
2022/03/06 11:24:08;;;;;;;27.60;14.00;;;;;;;;;;5062624;28;20441;-71
2022/03/06 11:26:47;;;;;;;24.75;14.48;;;;;;;;;;5059889;28;20028;-72
2022/03/06 11:29:17;;;;;;;23.88;13.43;;;;;;;;;;5065105;28;20374;-72
2022/03/06 11:31:43;;;;;;;21.33;11.90;;;;;;;;;;5061247;28;20036;-72
2022/03/06 11:34:08;;;;;;;25.20;12.55;;;;;;;;;;5066427;28;20100;-72
2022/03/06 11:36:35;;;;;;;22.70;13.27;;;;;;;;;;5061373;28;20029;-72
2022/03/06 11:39:00;;;;;;;24.25;13.43;;;;;;;;;;5061474;28;20874;-72
2022/03/06 11:41:26;;;;;;;21.25;12.85;;;;;;;;;;5071030;28;20016;-72
2022/03/06 11:43:51;;;;;;;25.35;13.93;;;;;;;;;;5065510;28;20027;-72
2022/03/06 11:46:19;;;;;;;20.42;12.13;;;;;;;;;;5047321;28;20044;-72
2022/03/06 11:48:45;;;;;;;21.88;12.85;;;;;;;;;;5063974;28;20803;-72
2022/03/06 11:51:19;;;;;;;20.25;12.75;;;;;;;;;;5066369;28;20024;-72
2022/03/06 11:53:48;;;;;;;21.70;12.23;;;;;;;;;;5061869;28;20031;-72
2022/03/06 11:56:34;;;;;;;21.23;12.68;;;;;;;;;;5066593;28;20099;-72
2022/03/06 11:59:06;;;;;;;22.30;11.70;;;;;;;;;;5066046;28;20036;-72
2022/03/06 12:01:35;;;;;;;21.25;11.77;;;;;;;;;;5063809;28;20059;-72
2022/03/06 12:04:21;;;;;;;17.67;11.65;;;;;;;;;;5062027;28;20016;-72
2022/03/06 12:06:48;;;;;;;19.50;12.25;;;;;;;;;;5065222;28;20025;-72
2022/03/06 12:09:23;;;;;;;25.08;11.93;;;;;;;;;;5061969;28;20393;-72
2022/03/06 12:11:48;;;;;;;18.48;11.27;;;;;;;;;;5061349;28;20041;-72
2022/03/06 12:14:31;;;;;;;24.80;12.25;;;;;;;;;;5058183;28;20052;-72
2022/03/06 12:17:11;;;;;;;19.77;11.55;;;;;;;;;;5065634;28;20271;-72
2022/03/06 12:19:45;;;;;;;19.48;11.57;;;;;;;;;;5065341;28;20077;-73
2022/03/06 12:22:10;;;;;;;;;;;;;;;;;;5062292;28;20040;-72
2022/03/06 12:24:35;;;;;;;23.30;11.82;;;;;;;;;;5063431;28;19955;-72
2022/03/06 12:27:12;;;;;;;22.40;11.82;;;;;;;;;;5061713;28;20272;-72
2022/03/06 12:29:47;;;;;;;18.08;11.35;;;;;;;;;;5063125;28;20036;-72
2022/03/06 12:32:24;;;;;;;20.67;12.15;;;;;;;;;;5064028;28;20068;-73
2022/03/06 12:34:56;;;;;;;19.80;10.57;;;;;;;;;;5064041;28;20040;-72
2022/03/06 12:37:29;;;;;;;20.10;11.95;;;;;;;;;;5048367;28;20712;-73
2022/03/06 12:39:54;;;;;;;21.90;11.07;;;;;;;;;;5064506;28;20052;-73
2022/03/06 12:42:24;;;;;;;22.20;11.55;;;;;;;;;;5064509;28;20052;-73
2022/03/06 12:44:52;;;;;;;19.23;11.40;;;;;;;;;;5047608;28;20028;-72
2022/03/06 12:47:17;;;;;;;20.92;11.30;;;;;;;;;;5065362;28;20432;-72
2022/03/06 12:49:46;;;;;;;20.90;12.30;;;;;;;;;;5064220;28;20013;-72
2022/03/06 12:52:11;;;;;;;20.38;12.13;;;;;;;;;;5048347;28;20086;-72
2022/03/06 12:54:36;;;;;;;16.55;11.05;;;;;;;;;;5044846;28;20051;-72
2022/03/06 12:57:02;;;;;;;17.92;10.65;;;;;;;;;;5060991;28;20158;-72
2022/03/06 12:59:27;;;;;;;17.00;11.30;;;;;;;;;;5062051;28;20036;-72
2022/03/06 13:01:52;;;;;;;18.90;11.60;;;;;;;;;;5060159;28;20064;-72
2022/03/06 13:04:19;;;;;;;16.73;9.77;;;;;;;;;;5061728;28;20118;-72
2022/03/06 13:06:45;;;;;;;14.40;9.35;;;;;;;;;;5063692;28;20077;-72
2022/03/06 13:09:27;;;;;;;15.95;9.25;;;;;;;;;;5063568;28;20024;-72
2022/03/06 13:11:54;;;;;;;15.93;9.75;;;;;;;;;;5065181;28;20036;-72
2022/03/06 13:14:31;;;;;;;16.88;9.98;;;;;;;;;;5060626;28;20063;-72
2022/03/06 13:16:57;;;;;;;15.85;9.02;;;;;;;;;;5063547;28;20570;-72
2022/03/06 13:19:23;;;;;;;14.65;9.00;;;;;;;;;;5064815;28;20047;-72
2022/03/06 13:21:48;;;;;;;17.25;8.77;;;;;;;;;;5060401;28;20056;-72
2022/03/06 13:24:14;;;;;;;13.40;8.05;;;;;;;;;;5064442;28;20115;-72
2022/03/06 13:26:39;;;;;;;19.85;10.98;;;;;;;;;;5061033;28;20039;-72
2022/03/06 13:29:06;;;;;;;14.68;9.07;;;;;;;;;;5060547;28;20054;-72
2022/03/06 13:31:44;;;;;;;14.05;9.13;;;;;;;;;;5059414;28;20040;-72
2022/03/06 13:34:13;;;;;;;16.45;10.00;;;;;;;;;;5061511;28;20058;-72
2022/03/06 13:36:39;;;;;;;15.98;9.35;;;;;;;;;;5044500;28;20034;-72
2022/03/06 13:39:08;;;;;;;16.38;8.90;;;;;;;;;;5063046;28;20020;-72
2022/03/06 13:41:34;;;;;;;16.23;9.38;;;;;;;;;;5062321;28;20035;-72
2022/03/06 13:44:00;;;;;;;38.13;15.80;;;;;;;;;;5059861;28;20032;-72
2022/03/06 13:46:26;;;;;;;33.83;16.38;;;;;;;;;;5058914;28;20528;-72
2022/03/06 13:49:06;;;;;;;34.72;17.88;;;;;;;;;;5061521;28;20031;-71
2022/03/06 13:51:32;;;;;;;19.15;13.07;;;;;;;;;;5063879;28;20481;-72
2022/03/06 13:53:58;;;;;;;16.15;11.70;;;;;;;;;;5065588;28;20453;-72
2022/03/06 13:56:33;;;;;;;15.05;9.57;;;;;;;;;;5061777;28;20119;-72
2022/03/06 13:58:58;;;;;;;15.18;9.40;;;;;;;;;;5060882;28;20087;-72
2022/03/06 14:01:25;;;;;;;12.43;9.10;;;;;;;;;;5062224;28;20029;-72
2022/03/06 14:03:56;;;;;;;12.18;8.68;;;;;;;;;;5058159;28;20081;-73
2022/03/06 14:06:31;;;;;;;12.27;9.05;;;;;;;;;;5059063;28;20043;-73
2022/03/06 14:08:56;;;;;;;11.13;8.40;;;;;;;;;;5044846;28;20031;-72
2022/03/06 14:11:29;;;;;;;12.48;8.57;;;;;;;;;;5062995;28;20124;-72
2022/03/06 14:13:58;;;;;;;14.60;9.02;;;;;;;;;;5062754;28;20052;-72